sensor_id;sensor_type;location;lat;lon;timestamp;pressure;altitude;pressure_sealevel;temperature;humidity
2339;BME280;1180;51.438;6.978;2023-03-14T00:02:09;97813.97;;;14.26;79.34
2339;BME280;1180;51.438;6.978;2023-03-14T00:04:36;97813.00;;;14.27;79.00
2339;BME280;1180;51.438;6.978;2023-03-14T00:07:03;97808.00;;;14.26;79.21
2339;BME280;1180;51.438;6.978;2023-03-14T00:09:29;97800.66;;;14.38;78.58
2339;BME280;1180;51.438;6.978;2023-03-14T00:11:55;97791.09;;;14.38;77.99
2339;BME280;1180;51.438;6.978;2023-03-14T00:14:21;97771.38;;;14.30;78.75
2339;BME280;1180;51.438;6.978;2023-03-14T00:16:46;97774.31;;;14.42;78.03
2339;BME280;1180;51.438;6.978;2023-03-14T00:19:12;97764.25;;;14.33;78.80
2339;BME280;1180;51.438;6.978;2023-03-14T00:21:37;97768.88;;;14.37;78.45
2339;BME280;1180;51.438;6.978;2023-03-14T00:24:02;97760.63;;;14.42;78.37
2339;BME280;1180;51.438;6.978;2023-03-14T00:26:28;97756.25;;;14.42;78.59
2339;BME280;1180;51.438;6.978;2023-03-14T00:28:53;97767.09;;;14.38;79.13
2339;BME280;1180;51.438;6.978;2023-03-14T00:31:19;97769.69;;;14.38;79.26
2339;BME280;1180;51.438;6.978;2023-03-14T00:33:45;97780.78;;;14.38;79.09
2339;BME280;1180;51.438;6.978;2023-03-14T00:36:15;97793.78;;;14.30;79.56
2339;BME280;1180;51.438;6.978;2023-03-14T00:38:42;97801.97;;;14.34;79.39
2339;BME280;1180;51.438;6.978;2023-03-14T00:41:11;97818.22;;;14.19;80.02
2339;BME280;1180;51.438;6.978;2023-03-14T00:43:38;97819.34;;;14.01;83.83
2339;BME280;1180;51.438;6.978;2023-03-14T00:46:04;97831.63;;;13.91;85.94
2339;BME280;1180;51.438;6.978;2023-03-14T00:48:29;97846.31;;;13.67;88.20
2339;BME280;1180;51.438;6.978;2023-03-14T00:50:55;97851.97;;;13.63;91.08
2339;BME280;1180;51.438;6.978;2023-03-14T00:53:20;97839.44;;;13.60;93.52
2339;BME280;1180;51.438;6.978;2023-03-14T00:55:46;97839.72;;;13.65;94.54
2339;BME280;1180;51.438;6.978;2023-03-14T00:58:14;97828.28;;;13.67;93.14
2339;BME280;1180;51.438;6.978;2023-03-14T01:00:40;97816.22;;;13.60;94.29
2339;BME280;1180;51.438;6.978;2023-03-14T01:03:06;97811.94;;;13.52;93.27
2339;BME280;1180;51.438;6.978;2023-03-14T01:05:32;97829.06;;;13.36;93.33
2339;BME280;1180;51.438;6.978;2023-03-14T01:07:57;97818.47;;;13.31;92.33
2339;BME280;1180;51.438;6.978;2023-03-14T01:10:23;97815.91;;;13.23;91.96
2339;BME280;1180;51.438;6.978;2023-03-14T01:12:49;97836.84;;;13.20;92.08
2339;BME280;1180;51.438;6.978;2023-03-14T01:15:14;97832.38;;;13.13;92.61
2339;BME280;1180;51.438;6.978;2023-03-14T01:17:40;97825.94;;;13.09;92.84
2339;BME280;1180;51.438;6.978;2023-03-14T01:20:07;97821.44;;;13.11;92.19
2339;BME280;1180;51.438;6.978;2023-03-14T01:22:37;97825.03;;;13.02;93.63
2339;BME280;1180;51.438;6.978;2023-03-14T01:25:06;97830.63;;;13.06;93.78
2339;BME280;1180;51.438;6.978;2023-03-14T01:27:32;97827.94;;;12.99;94.38
2339;BME280;1180;51.438;6.978;2023-03-14T01:29:58;97832.31;;;12.90;95.41
2339;BME280;1180;51.438;6.978;2023-03-14T01:32:24;97831.63;;;12.96;95.06
2339;BME280;1180;51.438;6.978;2023-03-14T01:34:49;97809.91;;;12.99;95.55
2339;BME280;1180;51.438;6.978;2023-03-14T01:37:14;97811.19;;;13.03;95.41
2339;BME280;1180;51.438;6.978;2023-03-14T01:39:39;97803.59;;;13.10;94.79
2339;BME280;1180;51.438;6.978;2023-03-14T01:42:05;97806.72;;;12.89;95.76
2339;BME280;1180;51.438;6.978;2023-03-14T01:44:57;97798.34;;;12.95;95.99
2339;BME280;1180;51.438;6.978;2023-03-14T01:47:23;97799.03;;;12.80;95.45
2339;BME280;1180;51.438;6.978;2023-03-14T01:49:55;97797.28;;;12.73;96.89
2339;BME280;1180;51.438;6.978;2023-03-14T01:52:29;97805.19;;;12.71;96.59
2339;BME280;1180;51.438;6.978;2023-03-14T01:55:04;97792.81;;;12.58;96.95
2339;BME280;1180;51.438;6.978;2023-03-14T01:57:41;97794.69;;;12.73;96.78
2339;BME280;1180;51.438;6.978;2023-03-14T02:00:12;97793.44;;;12.68;97.50
2339;BME280;1180;51.438;6.978;2023-03-14T02:02:47;97800.63;;;12.81;96.55
2339;BME280;1180;51.438;6.978;2023-03-14T02:05:17;97793.53;;;12.83;95.92
2339;BME280;1180;51.438;6.978;2023-03-14T02:07:53;97796.75;;;12.94;94.93
2339;BME280;1180;51.438;6.978;2023-03-14T02:10:22;97792.59;;;12.76;95.41
2339;BME280;1180;51.438;6.978;2023-03-14T02:12:49;97784.91;;;12.76;95.04
2339;BME280;1180;51.438;6.978;2023-03-14T02:15:15;97789.69;;;12.79;94.56
2339;BME280;1180;51.438;6.978;2023-03-14T02:17:42;97790.38;;;12.73;93.99
2339;BME280;1180;51.438;6.978;2023-03-14T02:20:36;97785.56;;;12.70;94.20
2339;BME280;1180;51.438;6.978;2023-03-14T02:22:59;97778.81;;;12.69;94.71
2339;BME280;1180;51.438;6.978;2023-03-14T02:25:48;97782.66;;;12.73;93.96
2339;BME280;1180;51.438;6.978;2023-03-14T02:28:15;97790.56;;;12.63;94.85
2339;BME280;1180;51.438;6.978;2023-03-14T02:30:41;97790.84;;;12.77;94.98
2339;BME280;1180;51.438;6.978;2023-03-14T02:33:09;97786.50;;;12.77;93.85
2339;BME280;1180;51.438;6.978;2023-03-14T02:35:41;97777.94;;;12.85;94.27
2339;BME280;1180;51.438;6.978;2023-03-14T02:38:15;97785.53;;;12.78;94.66
2339;BME280;1180;51.438;6.978;2023-03-14T02:40:43;97783.63;;;12.72;94.60
2339;BME280;1180;51.438;6.978;2023-03-14T02:43:08;97789.44;;;12.66;95.10
2339;BME280;1180;51.438;6.978;2023-03-14T02:45:40;97795.03;;;12.69;95.38
2339;BME280;1180;51.438;6.978;2023-03-14T02:48:11;97793.91;;;12.72;95.36
2339;BME280;1180;51.438;6.978;2023-03-14T02:50:38;97791.63;;;12.77;94.69
2339;BME280;1180;51.438;6.978;2023-03-14T02:53:04;97786.00;;;12.74;95.03
2339;BME280;1180;51.438;6.978;2023-03-14T02:55:30;97779.97;;;12.58;96.05
2339;BME280;1180;51.438;6.978;2023-03-14T02:57:55;97787.94;;;12.71;95.53
2339;BME280;1180;51.438;6.978;2023-03-14T03:00:21;97778.91;;;12.84;94.41
2339;BME280;1180;51.438;6.978;2023-03-14T03:02:46;97777.78;;;12.86;93.58
2339;BME280;1180;51.438;6.978;2023-03-14T03:05:11;97764.84;;;13.03;91.74
2339;BME280;1180;51.438;6.978;2023-03-14T03:07:37;97771.66;;;12.88;92.90
2339;BME280;1180;51.438;6.978;2023-03-14T03:10:03;97768.44;;;12.85;92.40
2339;BME280;1180;51.438;6.978;2023-03-14T03:12:29;97763.19;;;12.79;92.36
2339;BME280;1180;51.438;6.978;2023-03-14T03:14:54;97753.38;;;12.74;93.07
2339;BME280;1180;51.438;6.978;2023-03-14T03:17:19;97751.41;;;12.84;92.41
2339;BME280;1180;51.438;6.978;2023-03-14T03:19:45;97745.00;;;12.80;92.22
2339;BME280;1180;51.438;6.978;2023-03-14T03:22:10;97740.31;;;12.84;91.92
2339;BME280;1180;51.438;6.978;2023-03-14T03:24:36;97743.38;;;12.79;92.15
2339;BME280;1180;51.438;6.978;2023-03-14T03:27:01;97744.19;;;12.80;91.48
2339;BME280;1180;51.438;6.978;2023-03-14T03:29:26;97731.97;;;12.82;91.12
2339;BME280;1180;51.438;6.978;2023-03-14T03:31:52;97724.84;;;12.92;91.34
2339;BME280;1180;51.438;6.978;2023-03-14T03:34:18;97729.06;;;12.85;91.55
2339;BME280;1180;51.438;6.978;2023-03-14T03:36:43;97730.69;;;12.78;92.11
2339;BME280;1180;51.438;6.978;2023-03-14T03:39:09;97739.84;;;12.80;92.35
2339;BME280;1180;51.438;6.978;2023-03-14T03:41:34;97738.91;;;12.73;92.53
2339;BME280;1180;51.438;6.978;2023-03-14T03:43:59;97737.56;;;12.85;91.59
2339;BME280;1180;51.438;6.978;2023-03-14T03:46:25;97745.16;;;12.79;92.79
2339;BME280;1180;51.438;6.978;2023-03-14T03:48:58;97750.31;;;12.79;94.33
2339;BME280;1180;51.438;6.978;2023-03-14T03:51:24;97747.31;;;12.67;96.11
2339;BME280;1180;51.438;6.978;2023-03-14T03:53:50;97742.59;;;12.70;97.08
2339;BME280;1180;51.438;6.978;2023-03-14T03:56:15;97738.09;;;12.73;97.50
2339;BME280;1180;51.438;6.978;2023-03-14T03:58:41;97733.09;;;12.79;96.80
2339;BME280;1180;51.438;6.978;2023-03-14T04:01:08;97728.75;;;12.80;96.33
2339;BME280;1180;51.438;6.978;2023-03-14T04:03:33;97740.22;;;12.69;96.86
2339;BME280;1180;51.438;6.978;2023-03-14T04:06:01;97741.22;;;12.60;96.86
2339;BME280;1180;51.438;6.978;2023-03-14T04:08:27;97738.31;;;12.63;96.11
2339;BME280;1180;51.438;6.978;2023-03-14T04:11:01;97736.56;;;12.55;97.43
2339;BME280;1180;51.438;6.978;2023-03-14T04:13:27;97742.19;;;12.50;96.90
2339;BME280;1180;51.438;6.978;2023-03-14T04:15:54;97739.81;;;12.49;97.64
2339;BME280;1180;51.438;6.978;2023-03-14T04:18:20;97743.81;;;12.43;97.25
2339;BME280;1180;51.438;6.978;2023-03-14T04:20:46;97746.25;;;12.36;98.87
2339;BME280;1180;51.438;6.978;2023-03-14T04:23:15;97742.25;;;12.34;98.47
2339;BME280;1180;51.438;6.978;2023-03-14T04:25:40;97751.09;;;12.31;98.71
2339;BME280;1180;51.438;6.978;2023-03-14T04:28:06;97753.19;;;12.27;98.85
2339;BME280;1180;51.438;6.978;2023-03-14T04:30:31;97742.28;;;12.09;98.80
2339;BME280;1180;51.438;6.978;2023-03-14T04:32:56;97740.03;;;12.14;97.34
2339;BME280;1180;51.438;6.978;2023-03-14T04:35:21;97738.91;;;12.17;97.20
2339;BME280;1180;51.438;6.978;2023-03-14T04:37:47;97741.31;;;12.18;96.49
2339;BME280;1180;51.438;6.978;2023-03-14T04:40:14;97739.38;;;11.87;98.39
2339;BME280;1180;51.438;6.978;2023-03-14T04:42:40;97733.47;;;11.78;99.60
2339;BME280;1180;51.438;6.978;2023-03-14T04:45:07;97730.38;;;11.83;100.00
2339;BME280;1180;51.438;6.978;2023-03-14T04:47:32;97729.91;;;11.96;99.05
2339;BME280;1180;51.438;6.978;2023-03-14T04:49:58;97734.88;;;11.89;99.33
2339;BME280;1180;51.438;6.978;2023-03-14T04:52:23;97738.56;;;11.95;99.24
2339;BME280;1180;51.438;6.978;2023-03-14T04:54:49;97727.81;;;11.99;98.99
2339;BME280;1180;51.438;6.978;2023-03-14T04:57:14;97715.44;;;11.95;98.92
2339;BME280;1180;51.438;6.978;2023-03-14T04:59:39;97729.59;;;11.91;99.61
2339;BME280;1180;51.438;6.978;2023-03-14T05:02:05;97729.41;;;11.84;100.00
2339;BME280;1180;51.438;6.978;2023-03-14T05:04:30;97718.53;;;11.65;100.00
2339;BME280;1180;51.438;6.978;2023-03-14T05:06:58;97710.16;;;11.72;100.00
2339;BME280;1180;51.438;6.978;2023-03-14T05:09:23;97700.69;;;11.80;100.00
2339;BME280;1180;51.438;6.978;2023-03-14T05:11:48;97699.72;;;11.90;100.00
2339;BME280;1180;51.438;6.978;2023-03-14T05:14:14;97703.56;;;11.94;100.00
2339;BME280;1180;51.438;6.978;2023-03-14T05:16:39;97691.84;;;11.83;100.00
2339;BME280;1180;51.438;6.978;2023-03-14T05:19:04;97692.50;;;11.85;100.00
2339;BME280;1180;51.438;6.978;2023-03-14T05:21:30;97688.00;;;11.87;100.00
2339;BME280;1180;51.438;6.978;2023-03-14T05:23:55;97688.81;;;11.88;100.00
2339;BME280;1180;51.438;6.978;2023-03-14T05:26:20;97679.50;;;11.87;100.00
2339;BME280;1180;51.438;6.978;2023-03-14T05:28:46;97670.50;;;11.82;100.00
2339;BME280;1180;51.438;6.978;2023-03-14T05:31:11;97673.22;;;11.81;100.00
2339;BME280;1180;51.438;6.978;2023-03-14T05:33:37;97669.69;;;11.82;100.00
2339;BME280;1180;51.438;6.978;2023-03-14T05:36:02;97667.75;;;11.84;100.00
2339;BME280;1180;51.438;6.978;2023-03-14T05:38:28;97668.56;;;11.76;100.00
2339;BME280;1180;51.438;6.978;2023-03-14T05:40:53;97680.16;;;11.80;100.00
2339;BME280;1180;51.438;6.978;2023-03-14T05:43:18;97671.94;;;11.93;100.00
2339;BME280;1180;51.438;6.978;2023-03-14T05:45:44;97654.44;;;11.89;100.00
2339;BME280;1180;51.438;6.978;2023-03-14T05:48:09;97655.22;;;11.89;100.00
2339;BME280;1180;51.438;6.978;2023-03-14T05:50:35;97657.78;;;11.89;100.00
2339;BME280;1180;51.438;6.978;2023-03-14T05:53:00;97664.88;;;11.95;100.00
2339;BME280;1180;51.438;6.978;2023-03-14T05:55:26;97656.19;;;11.96;100.00
2339;BME280;1180;51.438;6.978;2023-03-14T05:57:52;97651.06;;;11.96;100.00
2339;BME280;1180;51.438;6.978;2023-03-14T06:00:18;97649.44;;;12.04;100.00
2339;BME280;1180;51.438;6.978;2023-03-14T06:02:44;97643.00;;;12.08;100.00
2339;BME280;1180;51.438;6.978;2023-03-14T06:05:11;97640.78;;;12.05;100.00
2339;BME280;1180;51.438;6.978;2023-03-14T06:07:36;97635.78;;;12.03;100.00
2339;BME280;1180;51.438;6.978;2023-03-14T06:10:02;97639.47;;;12.09;100.00
2339;BME280;1180;51.438;6.978;2023-03-14T06:12:27;97647.84;;;12.03;100.00
2339;BME280;1180;51.438;6.978;2023-03-14T06:14:53;97643.81;;;12.00;100.00
2339;BME280;1180;51.438;6.978;2023-03-14T06:17:18;97645.09;;;12.12;100.00
2339;BME280;1180;51.438;6.978;2023-03-14T06:19:44;97643.97;;;12.07;100.00
2339;BME280;1180;51.438;6.978;2023-03-14T06:22:09;97653.25;;;12.16;100.00
2339;BME280;1180;51.438;6.978;2023-03-14T06:24:35;97650.69;;;12.16;100.00
2339;BME280;1180;51.438;6.978;2023-03-14T06:27:00;97649.41;;;12.20;100.00
2339;BME280;1180;51.438;6.978;2023-03-14T06:29:27;97657.75;;;12.22;100.00
2339;BME280;1180;51.438;6.978;2023-03-14T06:31:53;97652.94;;;12.19;100.00
2339;BME280;1180;51.438;6.978;2023-03-14T06:34:18;97655.06;;;12.16;100.00
2339;BME280;1180;51.438;6.978;2023-03-14T06:36:43;97659.19;;;12.25;100.00
2339;BME280;1180;51.438;6.978;2023-03-14T06:39:08;97654.53;;;12.20;100.00
2339;BME280;1180;51.438;6.978;2023-03-14T06:41:34;97656.66;;;12.08;100.00
2339;BME280;1180;51.438;6.978;2023-03-14T06:43:59;97659.69;;;12.20;100.00
2339;BME280;1180;51.438;6.978;2023-03-14T06:46:24;97665.00;;;12.19;100.00
2339;BME280;1180;51.438;6.978;2023-03-14T06:48:50;97662.75;;;12.16;100.00
2339;BME280;1180;51.438;6.978;2023-03-14T06:51:15;97654.88;;;12.17;100.00
2339;BME280;1180;51.438;6.978;2023-03-14T06:53:40;97663.97;;;12.36;100.00
2339;BME280;1180;51.438;6.978;2023-03-14T06:56:07;97666.75;;;12.26;100.00
2339;BME280;1180;51.438;6.978;2023-03-14T06:58:32;97668.19;;;12.21;100.00
2339;BME280;1180;51.438;6.978;2023-03-14T07:00:58;97654.66;;;12.35;100.00
2339;BME280;1180;51.438;6.978;2023-03-14T07:03:24;97655.41;;;12.44;100.00
2339;BME280;1180;51.438;6.978;2023-03-14T07:05:49;97666.69;;;12.43;100.00
2339;BME280;1180;51.438;6.978;2023-03-14T07:08:15;97676.47;;;12.39;100.00
2339;BME280;1180;51.438;6.978;2023-03-14T07:10:40;97666.81;;;12.41;100.00
2339;BME280;1180;51.438;6.978;2023-03-14T07:13:06;97670.81;;;12.52;100.00
2339;BME280;1180;51.438;6.978;2023-03-14T07:15:31;97661.84;;;12.48;100.00
2339;BME280;1180;51.438;6.978;2023-03-14T07:17:57;97666.69;;;12.43;100.00
2339;BME280;1180;51.438;6.978;2023-03-14T07:20:22;97674.88;;;12.47;100.00
2339;BME280;1180;51.438;6.978;2023-03-14T07:22:49;97672.44;;;12.45;100.00
2339;BME280;1180;51.438;6.978;2023-03-14T07:25:14;97680.47;;;12.50;100.00
2339;BME280;1180;51.438;6.978;2023-03-14T07:27:40;97672.06;;;12.65;100.00
2339;BME280;1180;51.438;6.978;2023-03-14T07:30:08;97665.47;;;12.62;100.00
2339;BME280;1180;51.438;6.978;2023-03-14T07:32:33;97676.78;;;12.53;100.00
2339;BME280;1180;51.438;6.978;2023-03-14T07:34:59;97672.34;;;12.70;100.00
2339;BME280;1180;51.438;6.978;2023-03-14T07:37:25;97674.41;;;12.75;100.00
2339;BME280;1180;51.438;6.978;2023-03-14T07:39:50;97670.53;;;12.79;100.00
2339;BME280;1180;51.438;6.978;2023-03-14T07:42:16;97678.72;;;12.82;100.00
2339;BME280;1180;51.438;6.978;2023-03-14T07:44:41;97681.81;;;12.78;100.00
2339;BME280;1180;51.438;6.978;2023-03-14T07:47:06;97685.75;;;12.89;100.00
2339;BME280;1180;51.438;6.978;2023-03-14T07:49:32;97685.94;;;12.87;100.00
2339;BME280;1180;51.438;6.978;2023-03-14T07:51:57;97696.03;;;12.89;100.00
2339;BME280;1180;51.438;6.978;2023-03-14T07:54:23;97686.09;;;12.85;100.00
2339;BME280;1180;51.438;6.978;2023-03-14T07:56:50;97695.16;;;12.73;100.00
2339;BME280;1180;51.438;6.978;2023-03-14T07:59:15;97683.53;;;12.85;100.00
2339;BME280;1180;51.438;6.978;2023-03-14T08:01:41;97691.38;;;12.92;100.00
2339;BME280;1180;51.438;6.978;2023-03-14T08:04:06;97689.63;;;12.93;100.00
2339;BME280;1180;51.438;6.978;2023-03-14T08:06:31;97691.84;;;12.96;100.00
2339;BME280;1180;51.438;6.978;2023-03-14T08:08:57;97692.28;;;12.99;100.00
2339;BME280;1180;51.438;6.978;2023-03-14T08:11:22;97690.00;;;13.05;100.00
2339;BME280;1180;51.438;6.978;2023-03-14T08:13:48;97702.13;;;12.96;100.00
2339;BME280;1180;51.438;6.978;2023-03-14T08:16:16;97695.56;;;12.93;100.00
2339;BME280;1180;51.438;6.978;2023-03-14T08:18:42;97698.94;;;12.94;100.00
2339;BME280;1180;51.438;6.978;2023-03-14T08:21:08;97706.75;;;13.00;100.00
2339;BME280;1180;51.438;6.978;2023-03-14T08:23:33;97708.91;;;12.89;100.00
2339;BME280;1180;51.438;6.978;2023-03-14T08:25:59;97719.25;;;12.80;100.00
2339;BME280;1180;51.438;6.978;2023-03-14T08:28:24;97706.53;;;12.87;100.00
2339;BME280;1180;51.438;6.978;2023-03-14T08:30:55;97703.63;;;12.90;100.00
2339;BME280;1180;51.438;6.978;2023-03-14T08:33:21;97706.34;;;12.89;100.00
2339;BME280;1180;51.438;6.978;2023-03-14T08:35:46;97706.41;;;13.04;100.00
2339;BME280;1180;51.438;6.978;2023-03-14T08:38:11;97704.75;;;13.19;100.00
2339;BME280;1180;51.438;6.978;2023-03-14T08:40:36;97704.88;;;13.26;100.00
2339;BME280;1180;51.438;6.978;2023-03-14T08:43:02;97700.09;;;13.14;100.00
2339;BME280;1180;51.438;6.978;2023-03-14T08:45:27;97706.16;;;13.22;100.00
2339;BME280;1180;51.438;6.978;2023-03-14T08:47:53;97714.13;;;13.35;100.00
2339;BME280;1180;51.438;6.978;2023-03-14T08:50:18;97718.75;;;13.40;100.00
2339;BME280;1180;51.438;6.978;2023-03-14T08:52:44;97723.00;;;13.33;100.00
2339;BME280;1180;51.438;6.978;2023-03-14T08:55:10;97722.19;;;13.32;100.00
2339;BME280;1180;51.438;6.978;2023-03-14T08:57:35;97731.97;;;13.13;100.00
2339;BME280;1180;51.438;6.978;2023-03-14T09:00:02;97717.47;;;13.12;100.00
2339;BME280;1180;51.438;6.978;2023-03-14T09:02:30;97725.06;;;13.06;100.00
2339;BME280;1180;51.438;6.978;2023-03-14T09:04:55;97732.94;;;13.12;100.00
2339;BME280;1180;51.438;6.978;2023-03-14T09:07:21;97730.19;;;13.14;100.00
2339;BME280;1180;51.438;6.978;2023-03-14T09:09:46;97743.66;;;12.93;100.00
2339;BME280;1180;51.438;6.978;2023-03-14T09:12:12;97749.44;;;12.95;100.00
2339;BME280;1180;51.438;6.978;2023-03-14T09:14:38;97755.84;;;12.99;100.00
2339;BME280;1180;51.438;6.978;2023-03-14T09:17:04;97752.31;;;13.00;100.00
2339;BME280;1180;51.438;6.978;2023-03-14T09:19:29;97768.72;;;12.99;100.00
2339;BME280;1180;51.438;6.978;2023-03-14T09:21:55;97789.56;;;12.81;100.00
2339;BME280;1180;51.438;6.978;2023-03-14T09:24:21;97829.97;;;12.47;100.00
2339;BME280;1180;51.438;6.978;2023-03-14T09:26:46;97835.22;;;11.63;100.00
2339;BME280;1180;51.438;6.978;2023-03-14T09:29:12;97857.03;;;11.50;100.00
2339;BME280;1180;51.438;6.978;2023-03-14T09:31:37;97862.13;;;11.42;100.00
2339;BME280;1180;51.438;6.978;2023-03-14T09:34:03;97867.72;;;11.29;100.00
2339;BME280;1180;51.438;6.978;2023-03-14T09:36:28;97871.41;;;11.35;100.00
2339;BME280;1180;51.438;6.978;2023-03-14T09:38:53;97884.88;;;11.29;100.00
2339;BME280;1180;51.438;6.978;2023-03-14T09:41:28;97898.34;;;11.31;100.00
2339;BME280;1180;51.438;6.978;2023-03-14T09:44:31;97907.44;;;11.51;100.00
2339;BME280;1180;51.438;6.978;2023-03-14T09:47:01;97921.31;;;11.32;99.93
2339;BME280;1180;51.438;6.978;2023-03-14T09:49:30;97937.94;;;11.20;99.66
2339;BME280;1180;51.438;6.978;2023-03-14T09:52:04;97941.31;;;10.94;100.00
2339;BME280;1180;51.438;6.978;2023-03-14T09:54:37;97955.53;;;10.88;100.00
2339;BME280;1180;51.438;6.978;2023-03-14T09:57:05;97973.53;;;10.70;100.00
2339;BME280;1180;51.438;6.978;2023-03-14T09:59:33;97976.84;;;10.44;100.00
2339;BME280;1180;51.438;6.978;2023-03-14T10:02:13;97988.41;;;10.48;100.00
2339;BME280;1180;51.438;6.978;2023-03-14T10:04:40;97998.03;;;10.36;100.00
2339;BME280;1180;51.438;6.978;2023-03-14T10:07:13;98009.22;;;10.45;100.00
2339;BME280;1180;51.438;6.978;2023-03-14T10:09:40;98021.38;;;10.61;100.00
2339;BME280;1180;51.438;6.978;2023-03-14T10:12:08;98032.38;;;10.72;100.00
2339;BME280;1180;51.438;6.978;2023-03-14T10:14:37;98035.53;;;10.83;100.00
2339;BME280;1180;51.438;6.978;2023-03-14T10:17:11;98049.59;;;10.79;100.00
2339;BME280;1180;51.438;6.978;2023-03-14T10:19:51;98054.84;;;10.60;100.00
2339;BME280;1180;51.438;6.978;2023-03-14T10:22:18;98047.66;;;9.89;100.00
2339;BME280;1180;51.438;6.978;2023-03-14T10:24:53;98070.03;;;9.87;100.00
2339;BME280;1180;51.438;6.978;2023-03-14T10:27:21;98078.16;;;10.10;100.00
2339;BME280;1180;51.438;6.978;2023-03-14T10:29:55;98088.56;;;10.47;100.00
2339;BME280;1180;51.438;6.978;2023-03-14T10:32:23;98096.19;;;10.57;100.00
2339;BME280;1180;51.438;6.978;2023-03-14T10:38:02;98127.41;;;10.04;100.00
2339;BME280;1180;51.438;6.978;2023-03-14T10:40:32;98147.34;;;9.73;100.00
2339;BME280;1180;51.438;6.978;2023-03-14T10:42:59;98158.13;;;9.57;100.00
2339;BME280;1180;51.438;6.978;2023-03-14T10:45:37;98176.88;;;9.28;100.00
2339;BME280;1180;51.438;6.978;2023-03-14T10:48:22;98184.31;;;8.70;100.00
2339;BME280;1180;51.438;6.978;2023-03-14T10:54:12;98216.59;;;8.40;100.00
2339;BME280;1180;51.438;6.978;2023-03-14T10:56:38;98244.88;;;8.48;100.00
2339;BME280;1180;51.438;6.978;2023-03-14T10:59:07;98248.88;;;8.62;100.00
2339;BME280;1180;51.438;6.978;2023-03-14T11:07:33;98307.28;;;8.46;100.00
2339;BME280;1180;51.438;6.978;2023-03-14T11:15:27;98323.06;;;8.72;100.00
2339;BME280;1180;51.438;6.978;2023-03-14T11:18:31;98330.41;;;8.65;100.00
2339;BME280;1180;51.438;6.978;2023-03-14T11:21:13;98352.31;;;8.58;100.00
2339;BME280;1180;51.438;6.978;2023-03-14T11:24:03;98366.03;;;8.57;100.00
2339;BME280;1180;51.438;6.978;2023-03-14T11:26:48;98381.13;;;8.81;100.00
2339;BME280;1180;51.438;6.978;2023-03-14T11:31:58;98397.16;;;8.84;99.02
2339;BME280;1180;51.438;6.978;2023-03-14T11:34:29;98414.44;;;8.70;97.60
2339;BME280;1180;51.438;6.978;2023-03-14T11:37:05;98409.19;;;8.50;97.61
2339;BME280;1180;51.438;6.978;2023-03-14T11:39:39;98418.59;;;8.38;97.31
2339;BME280;1180;51.438;6.978;2023-03-14T11:42:10;98435.69;;;8.49;97.54
2339;BME280;1180;51.438;6.978;2023-03-14T11:44:38;98436.00;;;8.77;93.33
2339;BME280;1180;51.438;6.978;2023-03-14T11:47:12;98437.56;;;8.36;94.92
2339;BME280;1180;51.438;6.978;2023-03-14T11:49:47;98443.81;;;8.43;95.89
2339;BME280;1180;51.438;6.978;2023-03-14T11:52:30;98448.56;;;8.80;93.88
2339;BME280;1180;51.438;6.978;2023-03-14T11:57:23;98472.28;;;8.38;94.42
2339;BME280;1180;51.438;6.978;2023-03-14T12:07:30;98501.66;;;8.44;94.22
2339;BME280;1180;51.438;6.978;2023-03-14T12:09:59;98506.59;;;8.69;95.02
2339;BME280;1180;51.438;6.978;2023-03-14T12:12:28;98495.66;;;8.34;90.63
2339;BME280;1180;51.438;6.978;2023-03-14T12:14:58;98514.94;;;8.38;89.71
2339;BME280;1180;51.438;6.978;2023-03-14T12:17:33;98516.47;;;8.18;91.70
2339;BME280;1180;51.438;6.978;2023-03-14T12:20:18;98522.81;;;8.46;91.63
2339;BME280;1180;51.438;6.978;2023-03-14T12:23:02;98532.56;;;8.52;88.64
2339;BME280;1180;51.438;6.978;2023-03-14T12:25:30;98540.13;;;8.54;88.80
2339;BME280;1180;51.438;6.978;2023-03-14T12:38:10;98566.00;;;8.72;85.33
2339;BME280;1180;51.438;6.978;2023-03-14T12:40:50;98592.88;;;8.99;84.47
2339;BME280;1180;51.438;6.978;2023-03-14T12:43:30;98588.97;;;9.16;85.09
2339;BME280;1180;51.438;6.978;2023-03-14T12:46:26;98601.19;;;8.80;87.68
2339;BME280;1180;51.438;6.978;2023-03-14T12:48:56;98628.25;;;8.82;87.62
2339;BME280;1180;51.438;6.978;2023-03-14T12:51:30;98626.69;;;8.59;91.29
2339;BME280;1180;51.438;6.978;2023-03-14T13:01:55;98674.84;;;8.06;91.00
2339;BME280;1180;51.438;6.978;2023-03-14T13:04:28;98693.97;;;7.78;91.18
2339;BME280;1180;51.438;6.978;2023-03-14T13:06:59;98699.38;;;7.98;92.14
2339;BME280;1180;51.438;6.978;2023-03-14T13:11:52;98717.03;;;8.12;91.08
2339;BME280;1180;51.438;6.978;2023-03-14T13:14:18;98718.41;;;8.05;89.23
2339;BME280;1180;51.438;6.978;2023-03-14T13:16:44;98724.63;;;7.89;91.27
2339;BME280;1180;51.438;6.978;2023-03-14T13:19:21;98733.13;;;8.01;91.97
2339;BME280;1180;51.438;6.978;2023-03-14T13:21:50;98738.19;;;8.26;91.81
2339;BME280;1180;51.438;6.978;2023-03-14T13:24:27;98752.63;;;8.38;91.57
2339;BME280;1180;51.438;6.978;2023-03-14T13:26:55;98768.28;;;7.86;92.81
2339;BME280;1180;51.438;6.978;2023-03-14T13:29:23;98775.03;;;7.63;nan
2339;BME280;1180;51.438;6.978;2023-03-14T13:31:54;98768.69;;;7.69;87.40
2339;BME280;1180;51.438;6.978;2023-03-14T13:34:28;98778.00;;;7.81;87.19
2339;BME280;1180;51.438;6.978;2023-03-14T13:36:54;98773.44;;;7.98;89.29
2339;BME280;1180;51.438;6.978;2023-03-14T13:39:24;98789.75;;;8.19;86.23
2339;BME280;1180;51.438;6.978;2023-03-14T13:41:57;98798.38;;;8.30;84.34
2339;BME280;1180;51.438;6.978;2023-03-14T13:44:30;98787.34;;;8.29;82.89
2339;BME280;1180;51.438;6.978;2023-03-14T13:47:01;98794.91;;;8.42;81.91
2339;BME280;1180;51.438;6.978;2023-03-14T13:49:28;98791.38;;;8.20;82.90
2339;BME280;1180;51.438;6.978;2023-03-14T13:51:56;98798.31;;;8.07;83.41
2339;BME280;1180;51.438;6.978;2023-03-14T13:54:22;98803.97;;;8.35;82.53
2339;BME280;1180;51.438;6.978;2023-03-14T13:56:48;98819.38;;;8.58;82.24
2339;BME280;1180;51.438;6.978;2023-03-14T13:59:27;98809.53;;;8.87;80.89
2339;BME280;1180;51.438;6.978;2023-03-14T14:01:53;98814.78;;;8.97;78.86
2339;BME280;1180;51.438;6.978;2023-03-14T14:04:22;98819.63;;;9.23;79.97
2339;BME280;1180;51.438;6.978;2023-03-14T14:06:56;98823.59;;;9.38;77.80
2339;BME280;1180;51.438;6.978;2023-03-14T14:09:35;98825.31;;;9.38;77.33
2339;BME280;1180;51.438;6.978;2023-03-14T14:12:14;98834.09;;;9.68;77.42
2339;BME280;1180;51.438;6.978;2023-03-14T14:14:48;98846.63;;;9.38;72.34
2339;BME280;1180;51.438;6.978;2023-03-14T14:17:18;98836.97;;;9.08;74.05